sensor_id;sensor_type;location;lat;lon;timestamp;P1;durP1;ratioP1;P2;durP2;ratioP2
75620;SDS011;64574;48.506;-2.750;2023-06-22T00:00:50;4.55;;;2.95;;
75620;SDS011;64574;48.506;-2.750;2023-06-22T00:03:20;5.47;;;2.90;;
75620;SDS011;64574;48.506;-2.750;2023-06-22T00:05:47;5.18;;;3.05;;
75620;SDS011;64574;48.506;-2.750;2023-06-22T00:08:13;4.72;;;3.40;;
75620;SDS011;64574;48.506;-2.750;2023-06-22T00:10:39;9.20;;;3.60;;
75620;SDS011;64574;48.506;-2.750;2023-06-22T00:13:06;4.47;;;2.85;;
75620;SDS011;64574;48.506;-2.750;2023-06-22T00:15:32;5.82;;;3.13;;
75620;SDS011;64574;48.506;-2.750;2023-06-22T00:17:58;7.90;;;3.03;;
75620;SDS011;64574;48.506;-2.750;2023-06-22T00:20:24;7.78;;;3.45;;
75620;SDS011;64574;48.506;-2.750;2023-06-22T00:22:54;6.88;;;3.10;;
75620;SDS011;64574;48.506;-2.750;2023-06-22T00:25:21;6.43;;;2.67;;
75620;SDS011;64574;48.506;-2.750;2023-06-22T00:27:47;6.10;;;3.30;;
75620;SDS011;64574;48.506;-2.750;2023-06-22T00:30:13;4.93;;;3.30;;
75620;SDS011;64574;48.506;-2.750;2023-06-22T00:32:39;6.40;;;3.90;;
75620;SDS011;64574;48.506;-2.750;2023-06-22T00:35:04;5.10;;;3.42;;
75620;SDS011;64574;48.506;-2.750;2023-06-22T00:37:30;6.18;;;3.33;;
75620;SDS011;64574;48.506;-2.750;2023-06-22T00:39:56;6.68;;;3.75;;
75620;SDS011;64574;48.506;-2.750;2023-06-22T00:42:22;5.03;;;3.40;;
75620;SDS011;64574;48.506;-2.750;2023-06-22T00:44:47;6.05;;;3.58;;
75620;SDS011;64574;48.506;-2.750;2023-06-22T00:47:13;5.22;;;2.85;;
75620;SDS011;64574;48.506;-2.750;2023-06-22T00:49:42;5.53;;;3.30;;
75620;SDS011;64574;48.506;-2.750;2023-06-22T00:52:08;5.53;;;3.30;;
75620;SDS011;64574;48.506;-2.750;2023-06-22T00:54:41;5.78;;;3.13;;
75620;SDS011;64574;48.506;-2.750;2023-06-22T00:57:10;7.50;;;3.10;;
75620;SDS011;64574;48.506;-2.750;2023-06-22T00:59:41;6.28;;;3.45;;
75620;SDS011;64574;48.506;-2.750;2023-06-22T01:02:08;5.60;;;2.92;;
75620;SDS011;64574;48.506;-2.750;2023-06-22T01:04:35;5.80;;;3.40;;
75620;SDS011;64574;48.506;-2.750;2023-06-22T01:07:16;4.97;;;3.22;;
75620;SDS011;64574;48.506;-2.750;2023-06-22T01:09:57;8.07;;;4.10;;
75620;SDS011;64574;48.506;-2.750;2023-06-22T01:12:34;9.27;;;4.53;;
75620;SDS011;64574;48.506;-2.750;2023-06-22T01:15:10;6.53;;;3.65;;
75620;SDS011;64574;48.506;-2.750;2023-06-22T01:17:40;7.00;;;4.40;;
75620;SDS011;64574;48.506;-2.750;2023-06-22T01:20:08;7.32;;;4.05;;
75620;SDS011;64574;48.506;-2.750;2023-06-22T01:22:46;8.38;;;4.10;;
75620;SDS011;64574;48.506;-2.750;2023-06-22T01:25:31;5.95;;;3.90;;
75620;SDS011;64574;48.506;-2.750;2023-06-22T01:30:49;8.43;;;4.13;;
75620;SDS011;64574;48.506;-2.750;2023-06-22T01:33:28;6.68;;;4.10;;
75620;SDS011;64574;48.506;-2.750;2023-06-22T01:35:55;8.82;;;4.97;;
75620;SDS011;64574;48.506;-2.750;2023-06-22T01:38:21;7.30;;;4.63;;
75620;SDS011;64574;48.506;-2.750;2023-06-22T01:40:47;8.65;;;5.05;;
75620;SDS011;64574;48.506;-2.750;2023-06-22T01:43:14;11.63;;;6.47;;
75620;SDS011;64574;48.506;-2.750;2023-06-22T01:45:40;11.65;;;5.70;;
75620;SDS011;64574;48.506;-2.750;2023-06-22T01:48:08;7.75;;;5.35;;
75620;SDS011;64574;48.506;-2.750;2023-06-22T01:50:34;8.23;;;4.85;;
75620;SDS011;64574;48.506;-2.750;2023-06-22T01:53:00;7.75;;;4.88;;
75620;SDS011;64574;48.506;-2.750;2023-06-22T01:55:25;11.27;;;5.78;;
75620;SDS011;64574;48.506;-2.750;2023-06-22T01:57:51;12.27;;;5.32;;
75620;SDS011;64574;48.506;-2.750;2023-06-22T02:00:20;7.55;;;4.47;;
75620;SDS011;64574;48.506;-2.750;2023-06-22T02:02:52;8.95;;;4.82;;
75620;SDS011;64574;48.506;-2.750;2023-06-22T02:05:21;7.75;;;4.88;;
75620;SDS011;64574;48.506;-2.750;2023-06-22T02:08:08;10.45;;;5.38;;
75620;SDS011;64574;48.506;-2.750;2023-06-22T02:10:36;9.20;;;5.68;;
75620;SDS011;64574;48.506;-2.750;2023-06-22T02:13:06;15.48;;;6.72;;
75620;SDS011;64574;48.506;-2.750;2023-06-22T02:15:33;9.38;;;5.43;;
75620;SDS011;64574;48.506;-2.750;2023-06-22T02:18:00;10.65;;;5.68;;
75620;SDS011;64574;48.506;-2.750;2023-06-22T02:20:26;14.30;;;6.65;;
75620;SDS011;64574;48.506;-2.750;2023-06-22T02:22:52;9.55;;;5.70;;
75620;SDS011;64574;48.506;-2.750;2023-06-22T02:25:17;11.27;;;5.22;;
75620;SDS011;64574;48.506;-2.750;2023-06-22T02:27:44;9.27;;;5.80;;
75620;SDS011;64574;48.506;-2.750;2023-06-22T02:30:10;10.45;;;6.40;;
75620;SDS011;64574;48.506;-2.750;2023-06-22T02:32:37;9.77;;;5.90;;
75620;SDS011;64574;48.506;-2.750;2023-06-22T02:35:02;13.50;;;6.78;;
75620;SDS011;64574;48.506;-2.750;2023-06-22T02:37:31;9.35;;;5.45;;
75620;SDS011;64574;48.506;-2.750;2023-06-22T02:39:57;12.10;;;7.00;;
75620;SDS011;64574;48.506;-2.750;2023-06-22T02:42:23;15.05;;;6.15;;
75620;SDS011;64574;48.506;-2.750;2023-06-22T02:44:48;11.85;;;6.70;;
75620;SDS011;64574;48.506;-2.750;2023-06-22T02:47:14;11.32;;;6.13;;
75620;SDS011;64574;48.506;-2.750;2023-06-22T02:49:40;14.48;;;6.97;;
75620;SDS011;64574;48.506;-2.750;2023-06-22T02:52:07;11.23;;;5.50;;
75620;SDS011;64574;48.506;-2.750;2023-06-22T02:54:32;13.43;;;7.18;;
75620;SDS011;64574;48.506;-2.750;2023-06-22T02:56:58;13.95;;;6.53;;
75620;SDS011;64574;48.506;-2.750;2023-06-22T02:59:27;11.30;;;5.72;;
75620;SDS011;64574;48.506;-2.750;2023-06-22T03:01:53;17.02;;;7.90;;
75620;SDS011;64574;48.506;-2.750;2023-06-22T03:04:19;18.58;;;7.20;;
75620;SDS011;64574;48.506;-2.750;2023-06-22T03:06:44;14.93;;;7.18;;
75620;SDS011;64574;48.506;-2.750;2023-06-22T03:09:15;13.85;;;7.00;;
75620;SDS011;64574;48.506;-2.750;2023-06-22T03:11:42;12.43;;;6.80;;
75620;SDS011;64574;48.506;-2.750;2023-06-22T03:14:08;14.88;;;7.32;;
75620;SDS011;64574;48.506;-2.750;2023-06-22T03:16:34;11.02;;;6.63;;
75620;SDS011;64574;48.506;-2.750;2023-06-22T03:18:59;10.15;;;7.13;;
75620;SDS011;64574;48.506;-2.750;2023-06-22T03:21:27;12.88;;;7.35;;
75620;SDS011;64574;48.506;-2.750;2023-06-22T03:23:53;14.82;;;7.70;;
75620;SDS011;64574;48.506;-2.750;2023-06-22T03:26:19;15.00;;;8.05;;
75620;SDS011;64574;48.506;-2.750;2023-06-22T03:28:45;15.25;;;7.82;;
75620;SDS011;64574;48.506;-2.750;2023-06-22T03:31:11;14.80;;;7.85;;
75620;SDS011;64574;48.506;-2.750;2023-06-22T03:33:36;15.90;;;7.93;;
75620;SDS011;64574;48.506;-2.750;2023-06-22T03:36:02;13.68;;;8.00;;
75620;SDS011;64574;48.506;-2.750;2023-06-22T03:38:28;15.35;;;8.02;;
75620;SDS011;64574;48.506;-2.750;2023-06-22T03:40:53;12.85;;;6.35;;
75620;SDS011;64574;48.506;-2.750;2023-06-22T03:43:19;11.75;;;5.75;;
75620;SDS011;64574;48.506;-2.750;2023-06-22T03:45:45;13.27;;;7.68;;
75620;SDS011;64574;48.506;-2.750;2023-06-22T03:48:11;13.43;;;6.65;;
75620;SDS011;64574;48.506;-2.750;2023-06-22T03:50:37;14.52;;;7.47;;
75620;SDS011;64574;48.506;-2.750;2023-06-22T03:53:02;15.43;;;7.82;;
75620;SDS011;64574;48.506;-2.750;2023-06-22T03:55:28;14.90;;;6.85;;
75620;SDS011;64574;48.506;-2.750;2023-06-22T03:57:54;18.13;;;8.30;;
75620;SDS011;64574;48.506;-2.750;2023-06-22T04:00:22;15.85;;;7.93;;
75620;SDS011;64574;48.506;-2.750;2023-06-22T04:02:50;14.38;;;7.72;;
75620;SDS011;64574;48.506;-2.750;2023-06-22T04:05:16;11.93;;;6.75;;
75620;SDS011;64574;48.506;-2.750;2023-06-22T04:07:45;13.15;;;7.63;;
75620;SDS011;64574;48.506;-2.750;2023-06-22T04:10:10;15.40;;;7.35;;
75620;SDS011;64574;48.506;-2.750;2023-06-22T04:12:36;14.27;;;6.50;;
75620;SDS011;64574;48.506;-2.750;2023-06-22T04:15:02;14.13;;;7.75;;
75620;SDS011;64574;48.506;-2.750;2023-06-22T04:17:27;13.75;;;6.93;;
75620;SDS011;64574;48.506;-2.750;2023-06-22T04:19:53;16.52;;;7.50;;
75620;SDS011;64574;48.506;-2.750;2023-06-22T04:22:19;16.27;;;7.82;;
75620;SDS011;64574;48.506;-2.750;2023-06-22T04:24:44;17.02;;;7.50;;
75620;SDS011;64574;48.506;-2.750;2023-06-22T04:27:10;12.35;;;6.13;;
75620;SDS011;64574;48.506;-2.750;2023-06-22T04:29:36;12.30;;;6.82;;
75620;SDS011;64574;48.506;-2.750;2023-06-22T04:32:03;14.43;;;7.20;;
75620;SDS011;64574;48.506;-2.750;2023-06-22T04:34:30;17.83;;;6.85;;
75620;SDS011;64574;48.506;-2.750;2023-06-22T04:36:56;12.82;;;7.15;;
75620;SDS011;64574;48.506;-2.750;2023-06-22T04:39:22;12.90;;;6.22;;
75620;SDS011;64574;48.506;-2.750;2023-06-22T04:41:48;14.02;;;7.78;;
75620;SDS011;64574;48.506;-2.750;2023-06-22T04:44:16;18.40;;;7.90;;
75620;SDS011;64574;48.506;-2.750;2023-06-22T04:49:28;10.85;;;6.25;;
75620;SDS011;64574;48.506;-2.750;2023-06-22T04:52:05;12.60;;;6.10;;
75620;SDS011;64574;48.506;-2.750;2023-06-22T04:54:32;13.60;;;7.63;;
75620;SDS011;64574;48.506;-2.750;2023-06-22T04:56:58;16.60;;;7.10;;
75620;SDS011;64574;48.506;-2.750;2023-06-22T04:59:28;12.98;;;6.18;;
75620;SDS011;64574;48.506;-2.750;2023-06-22T05:04:22;13.70;;;6.25;;
75620;SDS011;64574;48.506;-2.750;2023-06-22T05:06:53;13.10;;;7.18;;
75620;SDS011;64574;48.506;-2.750;2023-06-22T05:09:20;13.95;;;7.53;;
75620;SDS011;64574;48.506;-2.750;2023-06-22T05:11:46;12.07;;;6.57;;
75620;SDS011;64574;48.506;-2.750;2023-06-22T05:14:12;13.88;;;7.72;;
75620;SDS011;64574;48.506;-2.750;2023-06-22T05:16:40;11.55;;;6.43;;
75620;SDS011;64574;48.506;-2.750;2023-06-22T05:19:07;15.90;;;8.15;;
75620;SDS011;64574;48.506;-2.750;2023-06-22T05:21:33;14.45;;;7.28;;
75620;SDS011;64574;48.506;-2.750;2023-06-22T05:23:58;13.20;;;7.78;;
75620;SDS011;64574;48.506;-2.750;2023-06-22T05:26:28;17.02;;;8.43;;
75620;SDS011;64574;48.506;-2.750;2023-06-22T05:31:20;12.68;;;7.13;;
75620;SDS011;64574;48.506;-2.750;2023-06-22T05:33:47;10.40;;;6.07;;
75620;SDS011;64574;48.506;-2.750;2023-06-22T05:36:14;10.93;;;6.65;;
75620;SDS011;64574;48.506;-2.750;2023-06-22T05:38:40;13.32;;;7.10;;
75620;SDS011;64574;48.506;-2.750;2023-06-22T05:41:06;13.63;;;7.40;;
75620;SDS011;64574;48.506;-2.750;2023-06-22T05:43:33;12.25;;;6.85;;
75620;SDS011;64574;48.506;-2.750;2023-06-22T05:45:59;13.02;;;7.00;;
75620;SDS011;64574;48.506;-2.750;2023-06-22T05:48:26;13.43;;;7.18;;
75620;SDS011;64574;48.506;-2.750;2023-06-22T05:50:52;13.90;;;8.32;;
75620;SDS011;64574;48.506;-2.750;2023-06-22T05:53:18;14.73;;;8.65;;
75620;SDS011;64574;48.506;-2.750;2023-06-22T05:55:44;12.18;;;6.30;;
75620;SDS011;64574;48.506;-2.750;2023-06-22T05:58:11;12.77;;;7.05;;
75620;SDS011;64574;48.506;-2.750;2023-06-22T06:00:38;14.10;;;7.60;;
75620;SDS011;64574;48.506;-2.750;2023-06-22T06:03:03;14.50;;;7.05;;
75620;SDS011;64574;48.506;-2.750;2023-06-22T06:05:29;12.10;;;7.50;;
75620;SDS011;64574;48.506;-2.750;2023-06-22T06:07:56;10.93;;;6.53;;
75620;SDS011;64574;48.506;-2.750;2023-06-22T06:10:22;13.98;;;6.82;;
75620;SDS011;64574;48.506;-2.750;2023-06-22T06:12:47;13.27;;;7.32;;
75620;SDS011;64574;48.506;-2.750;2023-06-22T06:15:13;10.13;;;5.63;;
75620;SDS011;64574;48.506;-2.750;2023-06-22T06:17:48;9.90;;;5.82;;
75620;SDS011;64574;48.506;-2.750;2023-06-22T06:20:15;12.00;;;6.82;;
75620;SDS011;64574;48.506;-2.750;2023-06-22T06:22:42;10.55;;;6.40;;
75620;SDS011;64574;48.506;-2.750;2023-06-22T06:25:08;11.23;;;5.88;;
75620;SDS011;64574;48.506;-2.750;2023-06-22T06:27:34;11.30;;;6.15;;
75620;SDS011;64574;48.506;-2.750;2023-06-22T06:30:00;12.68;;;6.55;;
75620;SDS011;64574;48.506;-2.750;2023-06-22T06:32:26;12.95;;;5.68;;
75620;SDS011;64574;48.506;-2.750;2023-06-22T06:34:52;11.32;;;6.88;;
75620;SDS011;64574;48.506;-2.750;2023-06-22T06:37:18;9.93;;;5.60;;
75620;SDS011;64574;48.506;-2.750;2023-06-22T06:39:43;8.27;;;5.57;;
75620;SDS011;64574;48.506;-2.750;2023-06-22T06:42:09;8.77;;;5.63;;
75620;SDS011;64574;48.506;-2.750;2023-06-22T06:44:36;17.52;;;5.80;;
75620;SDS011;64574;48.506;-2.750;2023-06-22T06:47:03;9.32;;;5.05;;
75620;SDS011;64574;48.506;-2.750;2023-06-22T06:49:29;10.05;;;5.40;;
75620;SDS011;64574;48.506;-2.750;2023-06-22T06:51:55;10.50;;;4.75;;
75620;SDS011;64574;48.506;-2.750;2023-06-22T06:54:21;7.25;;;4.90;;
75620;SDS011;64574;48.506;-2.750;2023-06-22T06:56:47;9.10;;;4.57;;
75620;SDS011;64574;48.506;-2.750;2023-06-22T07:01:41;7.00;;;3.45;;
75620;SDS011;64574;48.506;-2.750;2023-06-22T07:04:09;18.50;;;4.50;;
75620;SDS011;64574;48.506;-2.750;2023-06-22T07:06:35;7.70;;;4.63;;
75620;SDS011;64574;48.506;-2.750;2023-06-22T07:09:00;8.75;;;4.53;;
75620;SDS011;64574;48.506;-2.750;2023-06-22T07:11:26;10.65;;;5.03;;
75620;SDS011;64574;48.506;-2.750;2023-06-22T07:13:52;9.35;;;4.80;;
75620;SDS011;64574;48.506;-2.750;2023-06-22T07:16:17;10.52;;;4.53;;
75620;SDS011;64574;48.506;-2.750;2023-06-22T07:18:43;6.68;;;3.17;;
75620;SDS011;64574;48.506;-2.750;2023-06-22T07:21:09;7.18;;;3.55;;
75620;SDS011;64574;48.506;-2.750;2023-06-22T07:23:34;8.55;;;3.25;;
75620;SDS011;64574;48.506;-2.750;2023-06-22T07:26:00;5.95;;;3.42;;
75620;SDS011;64574;48.506;-2.750;2023-06-22T07:28:31;18.45;;;3.75;;
75620;SDS011;64574;48.506;-2.750;2023-06-22T07:31:01;5.05;;;3.10;;
75620;SDS011;64574;48.506;-2.750;2023-06-22T07:33:28;9.93;;;3.45;;
75620;SDS011;64574;48.506;-2.750;2023-06-22T07:35:53;7.97;;;3.75;;
75620;SDS011;64574;48.506;-2.750;2023-06-22T07:38:19;7.20;;;3.47;;
75620;SDS011;64574;48.506;-2.750;2023-06-22T07:40:45;3.80;;;3.13;;
75620;SDS011;64574;48.506;-2.750;2023-06-22T07:43:10;4.88;;;3.58;;
75620;SDS011;64574;48.506;-2.750;2023-06-22T07:45:37;4.72;;;3.20;;
75620;SDS011;64574;48.506;-2.750;2023-06-22T07:48:05;4.57;;;2.92;;
75620;SDS011;64574;48.506;-2.750;2023-06-22T07:50:30;9.23;;;3.72;;
75620;SDS011;64574;48.506;-2.750;2023-06-22T07:52:56;6.95;;;3.30;;
75620;SDS011;64574;48.506;-2.750;2023-06-22T07:55:21;5.68;;;3.38;;
75620;SDS011;64574;48.506;-2.750;2023-06-22T07:57:48;5.40;;;3.72;;
75620;SDS011;64574;48.506;-2.750;2023-06-22T08:00:16;7.07;;;3.78;;
75620;SDS011;64574;48.506;-2.750;2023-06-22T08:02:44;9.30;;;3.42;;
75620;SDS011;64574;48.506;-2.750;2023-06-22T08:05:10;4.20;;;2.88;;
75620;SDS011;64574;48.506;-2.750;2023-06-22T08:07:36;10.32;;;3.28;;
75620;SDS011;64574;48.506;-2.750;2023-06-22T08:10:03;7.32;;;3.20;;
75620;SDS011;64574;48.506;-2.750;2023-06-22T08:12:35;6.55;;;3.17;;
75620;SDS011;64574;48.506;-2.750;2023-06-22T08:15:00;6.47;;;3.17;;
75620;SDS011;64574;48.506;-2.750;2023-06-22T08:17:26;5.55;;;2.85;;
75620;SDS011;64574;48.506;-2.750;2023-06-22T08:19:51;9.77;;;3.65;;
75620;SDS011;64574;48.506;-2.750;2023-06-22T08:22:17;11.43;;;3.53;;
75620;SDS011;64574;48.506;-2.750;2023-06-22T08:24:43;5.13;;;3.20;;
75620;SDS011;64574;48.506;-2.750;2023-06-22T08:27:09;7.43;;;3.20;;
75620;SDS011;64574;48.506;-2.750;2023-06-22T08:29:39;5.00;;;3.00;;
75620;SDS011;64574;48.506;-2.750;2023-06-22T08:32:07;4.05;;;2.92;;
75620;SDS011;64574;48.506;-2.750;2023-06-22T08:34:37;6.65;;;3.17;;
75620;SDS011;64574;48.506;-2.750;2023-06-22T08:37:07;7.72;;;3.15;;
75620;SDS011;64574;48.506;-2.750;2023-06-22T08:39:36;4.60;;;3.03;;
75620;SDS011;64574;48.506;-2.750;2023-06-22T08:42:02;4.28;;;2.80;;
75620;SDS011;64574;48.506;-2.750;2023-06-22T08:44:27;5.15;;;2.20;;
75620;SDS011;64574;48.506;-2.750;2023-06-22T08:46:53;4.15;;;2.88;;
75620;SDS011;64574;48.506;-2.750;2023-06-22T08:49:19;4.38;;;3.08;;
75620;SDS011;64574;48.506;-2.750;2023-06-22T08:51:44;4.75;;;2.80;;
75620;SDS011;64574;48.506;-2.750;2023-06-22T08:54:12;8.55;;;3.05;;
75620;SDS011;64574;48.506;-2.750;2023-06-22T08:56:38;5.90;;;2.80;;
75620;SDS011;64574;48.506;-2.750;2023-06-22T08:59:04;4.47;;;3.05;;
75620;SDS011;64574;48.506;-2.750;2023-06-22T09:01:32;5.50;;;3.17;;
75620;SDS011;64574;48.506;-2.750;2023-06-22T09:03:58;7.00;;;2.63;;
75620;SDS011;64574;48.506;-2.750;2023-06-22T09:06:24;3.50;;;2.40;;
75620;SDS011;64574;48.506;-2.750;2023-06-22T09:08:50;3.63;;;2.50;;
75620;SDS011;64574;48.506;-2.750;2023-06-22T09:11:16;3.72;;;2.55;;
75620;SDS011;64574;48.506;-2.750;2023-06-22T09:13:42;6.18;;;2.38;;
75620;SDS011;64574;48.506;-2.750;2023-06-22T09:16:08;3.78;;;2.08;;
75620;SDS011;64574;48.506;-2.750;2023-06-22T09:18:34;4.55;;;2.35;;
75620;SDS011;64574;48.506;-2.750;2023-06-22T09:20:59;4.05;;;2.47;;
75620;SDS011;64574;48.506;-2.750;2023-06-22T09:23:25;18.35;;;3.10;;
75620;SDS011;64574;48.506;-2.750;2023-06-22T09:25:51;5.43;;;2.90;;
75620;SDS011;64574;48.506;-2.750;2023-06-22T09:28:17;5.70;;;2.90;;
75620;SDS011;64574;48.506;-2.750;2023-06-22T09:30:42;6.22;;;2.75;;
75620;SDS011;64574;48.506;-2.750;2023-06-22T09:33:09;4.95;;;3.10;;
75620;SDS011;64574;48.506;-2.750;2023-06-22T09:35:35;39.72;;;5.28;;
75620;SDS011;64574;48.506;-2.750;2023-06-22T09:38:01;4.13;;;2.65;;
75620;SDS011;64574;48.506;-2.750;2023-06-22T09:40:26;5.32;;;3.40;;
75620;SDS011;64574;48.506;-2.750;2023-06-22T09:42:52;17.75;;;4.03;;
75620;SDS011;64574;48.506;-2.750;2023-06-22T09:45:17;4.95;;;3.42;;
75620;SDS011;64574;48.506;-2.750;2023-06-22T09:47:43;6.20;;;3.22;;
75620;SDS011;64574;48.506;-2.750;2023-06-22T09:50:09;7.75;;;3.10;;
75620;SDS011;64574;48.506;-2.750;2023-06-22T09:52:34;5.15;;;2.90;;
75620;SDS011;64574;48.506;-2.750;2023-06-22T09:55:01;11.05;;;3.33;;
75620;SDS011;64574;48.506;-2.750;2023-06-22T09:57:28;10.88;;;4.13;;
75620;SDS011;64574;48.506;-2.750;2023-06-22T09:59:54;9.73;;;3.42;;
75620;SDS011;64574;48.506;-2.750;2023-06-22T10:02:20;10.30;;;3.53;;
75620;SDS011;64574;48.506;-2.750;2023-06-22T10:04:47;8.35;;;3.47;;
75620;SDS011;64574;48.506;-2.750;2023-06-22T10:07:13;5.35;;;3.30;;
75620;SDS011;64574;48.506;-2.750;2023-06-22T10:09:38;4.53;;;3.10;;
75620;SDS011;64574;48.506;-2.750;2023-06-22T10:12:04;9.38;;;2.80;;
75620;SDS011;64574;48.506;-2.750;2023-06-22T10:14:30;5.22;;;3.42;;
75620;SDS011;64574;48.506;-2.750;2023-06-22T10:16:56;4.53;;;2.80;;
75620;SDS011;64574;48.506;-2.750;2023-06-22T10:19:21;13.07;;;3.55;;
75620;SDS011;64574;48.506;-2.750;2023-06-22T10:21:47;7.47;;;3.42;;
75620;SDS011;64574;48.506;-2.750;2023-06-22T10:24:13;7.63;;;3.47;;
75620;SDS011;64574;48.506;-2.750;2023-06-22T10:26:38;7.57;;;3.97;;
75620;SDS011;64574;48.506;-2.750;2023-06-22T10:29:04;8.93;;;4.05;;
75620;SDS011;64574;48.506;-2.750;2023-06-22T10:31:29;7.05;;;3.75;;
75620;SDS011;64574;48.506;-2.750;2023-06-22T10:33:55;8.02;;;3.65;;
75620;SDS011;64574;48.506;-2.750;2023-06-22T10:36:21;8.35;;;3.13;;
75620;SDS011;64574;48.506;-2.750;2023-06-22T10:38:47;7.07;;;3.20;;
75620;SDS011;64574;48.506;-2.750;2023-06-22T10:41:13;5.72;;;3.33;;
75620;SDS011;64574;48.506;-2.750;2023-06-22T10:43:40;4.53;;;3.08;;
75620;SDS011;64574;48.506;-2.750;2023-06-22T10:46:06;6.22;;;3.47;;
75620;SDS011;64574;48.506;-2.750;2023-06-22T10:48:31;12.57;;;3.35;;
75620;SDS011;64574;48.506;-2.750;2023-06-22T10:50:57;4.78;;;3.35;;
75620;SDS011;64574;48.506;-2.750;2023-06-22T10:53:23;8.05;;;3.50;;
75620;SDS011;64574;48.506;-2.750;2023-06-22T10:55:48;6.07;;;3.20;;
75620;SDS011;64574;48.506;-2.750;2023-06-22T10:58:14;6.38;;;3.28;;
75620;SDS011;64574;48.506;-2.750;2023-06-22T11:00:40;24.95;;;5.18;;
75620;SDS011;64574;48.506;-2.750;2023-06-22T11:03:06;9.88;;;3.80;;
75620;SDS011;64574;48.506;-2.750;2023-06-22T11:05:31;4.72;;;3.17;;
75620;SDS011;64574;48.506;-2.750;2023-06-22T11:07:57;4.63;;;2.97;;
75620;SDS011;64574;48.506;-2.750;2023-06-22T11:10:23;3.72;;;2.53;;
75620;SDS011;64574;48.506;-2.750;2023-06-22T11:12:48;3.70;;;2.60;;
75620;SDS011;64574;48.506;-2.750;2023-06-22T11:15:14;4.70;;;2.97;;
75620;SDS011;64574;48.506;-2.750;2023-06-22T11:17:40;8.98;;;2.97;;
75620;SDS011;64574;48.506;-2.750;2023-06-22T11:20:06;4.90;;;3.03;;
75620;SDS011;64574;48.506;-2.750;2023-06-22T11:22:39;4.75;;;2.92;;
75620;SDS011;64574;48.506;-2.750;2023-06-22T11:25:05;7.60;;;3.40;;
75620;SDS011;64574;48.506;-2.750;2023-06-22T11:29:57;5.55;;;2.53;;
75620;SDS011;64574;48.506;-2.750;2023-06-22T11:32:23;4.18;;;2.58;;
75620;SDS011;64574;48.506;-2.750;2023-06-22T11:34:48;6.00;;;2.75;;
75620;SDS011;64574;48.506;-2.750;2023-06-22T11:37:14;5.93;;;2.95;;
75620;SDS011;64574;48.506;-2.750;2023-06-22T11:39:40;4.53;;;2.80;;
75620;SDS011;64574;48.506;-2.750;2023-06-22T11:42:07;4.18;;;2.35;;
75620;SDS011;64574;48.506;-2.750;2023-06-22T11:46:59;6.85;;;2.75;;
75620;SDS011;64574;48.506;-2.750;2023-06-22T11:49:26;18.63;;;4.70;;
75620;SDS011;64574;48.506;-2.750;2023-06-22T11:51:52;16.48;;;3.75;;
75620;SDS011;64574;48.506;-2.750;2023-06-22T11:54:18;7.85;;;3.40;;
75620;SDS011;64574;48.506;-2.750;2023-06-22T11:56:43;15.60;;;4.45;;
75620;SDS011;64574;48.506;-2.750;2023-06-22T11:59:09;10.27;;;3.45;;
75620;SDS011;64574;48.506;-2.750;2023-06-22T12:01:34;4.70;;;3.30;;
75620;SDS011;64574;48.506;-2.750;2023-06-22T12:04:00;12.30;;;3.92;;
75620;SDS011;64574;48.506;-2.750;2023-06-22T12:06:26;12.63;;;4.10;;
75620;SDS011;64574;48.506;-2.750;2023-06-22T12:08:51;34.20;;;5.53;;
75620;SDS011;64574;48.506;-2.750;2023-06-22T12:11:17;5.50;;;3.55;;
75620;SDS011;64574;48.506;-2.750;2023-06-22T12:13:42;6.63;;;3.70;;
75620;SDS011;64574;48.506;-2.750;2023-06-22T12:16:09;7.07;;;3.85;;
75620;SDS011;64574;48.506;-2.750;2023-06-22T12:18:34;8.85;;;4.32;;
75620;SDS011;64574;48.506;-2.750;2023-06-22T12:21:00;8.88;;;4.30;;
75620;SDS011;64574;48.506;-2.750;2023-06-22T12:23:26;9.10;;;3.97;;
75620;SDS011;64574;48.506;-2.750;2023-06-22T12:25:51;7.80;;;3.88;;
75620;SDS011;64574;48.506;-2.750;2023-06-22T12:28:17;7.65;;;4.05;;
75620;SDS011;64574;48.506;-2.750;2023-06-22T12:30:42;7.43;;;3.80;;
75620;SDS011;64574;48.506;-2.750;2023-06-22T12:33:08;7.03;;;3.90;;
75620;SDS011;64574;48.506;-2.750;2023-06-22T12:35:34;10.88;;;3.22;;
75620;SDS011;64574;48.506;-2.750;2023-06-22T12:38:00;6.22;;;2.80;;
75620;SDS011;64574;48.506;-2.750;2023-06-22T12:40:25;6.85;;;3.22;;
75620;SDS011;64574;48.506;-2.750;2023-06-22T12:42:51;4.07;;;2.63;;
75620;SDS011;64574;48.506;-2.750;2023-06-22T12:45:16;6.57;;;3.00;;
75620;SDS011;64574;48.506;-2.750;2023-06-22T12:47:42;7.47;;;2.80;;
75620;SDS011;64574;48.506;-2.750;2023-06-22T12:50:08;10.73;;;3.40;;
75620;SDS011;64574;48.506;-2.750;2023-06-22T12:52:35;7.00;;;3.17;;
75620;SDS011;64574;48.506;-2.750;2023-06-22T12:55:04;4.72;;;2.72;;
75620;SDS011;64574;48.506;-2.750;2023-06-22T12:57:30;16.10;;;3.05;;
75620;SDS011;64574;48.506;-2.750;2023-06-22T12:59:55;12.50;;;3.40;;
75620;SDS011;64574;48.506;-2.750;2023-06-22T13:02:23;9.52;;;2.85;;
75620;SDS011;64574;48.506;-2.750;2023-06-22T13:04:49;7.82;;;2.88;;
75620;SDS011;64574;48.506;-2.750;2023-06-22T13:07:14;12.32;;;2.80;;
75620;SDS011;64574;48.506;-2.750;2023-06-22T13:09:40;8.02;;;2.78;;
75620;SDS011;64574;48.506;-2.750;2023-06-22T13:12:06;5.75;;;2.83;;
75620;SDS011;64574;48.506;-2.750;2023-06-22T13:14:31;4.45;;;2.92;;
75620;SDS011;64574;48.506;-2.750;2023-06-22T13:16:57;15.50;;;3.63;;
75620;SDS011;64574;48.506;-2.750;2023-06-22T13:19:23;6.30;;;2.83;;
75620;SDS011;64574;48.506;-2.750;2023-06-22T13:21:49;8.60;;;2.85;;
75620;SDS011;64574;48.506;-2.750;2023-06-22T13:24:15;5.18;;;2.67;;
75620;SDS011;64574;48.506;-2.750;2023-06-22T13:26:41;4.85;;;2.65;;
75620;SDS011;64574;48.506;-2.750;2023-06-22T13:29:07;5.60;;;2.50;;
75620;SDS011;64574;48.506;-2.750;2023-06-22T13:31:32;4.05;;;2.63;;
75620;SDS011;64574;48.506;-2.750;2023-06-22T13:33:58;5.28;;;2.80;;
75620;SDS011;64574;48.506;-2.750;2023-06-22T13:36:23;12.60;;;3.55;;
75620;SDS011;64574;48.506;-2.750;2023-06-22T13:38:49;3.30;;;2.30;;
75620;SDS011;64574;48.506;-2.750;2023-06-22T13:41:15;3.42;;;2.30;;
75620;SDS011;64574;48.506;-2.750;2023-06-22T13:43:40;4.28;;;2.53;;
75620;SDS011;64574;48.506;-2.750;2023-06-22T13:46:06;6.70;;;2.53;;
75620;SDS011;64574;48.506;-2.750;2023-06-22T13:48:32;4.15;;;2.28;;
75620;SDS011;64574;48.506;-2.750;2023-06-22T13:50:57;7.10;;;2.25;;
75620;SDS011;64574;48.506;-2.750;2023-06-22T13:53:24;15.52;;;2.90;;
75620;SDS011;64574;48.506;-2.750;2023-06-22T13:55:50;4.85;;;2.50;;
75620;SDS011;64574;48.506;-2.750;2023-06-22T13:58:16;5.95;;;2.20;;
75620;SDS011;64574;48.506;-2.750;2023-06-22T14:00:42;7.00;;;2.42;;
75620;SDS011;64574;48.506;-2.750;2023-06-22T14:03:07;3.97;;;2.50;;
75620;SDS011;64574;48.506;-2.750;2023-06-22T14:05:33;8.20;;;2.40;;
75620;SDS011;64574;48.506;-2.750;2023-06-22T14:07:58;10.52;;;2.90;;
75620;SDS011;64574;48.506;-2.750;2023-06-22T14:10:24;4.00;;;2.25;;
75620;SDS011;64574;48.506;-2.750;2023-06-22T14:12:49;3.75;;;2.00;;
75620;SDS011;64574;48.506;-2.750;2023-06-22T14:15:15;5.65;;;2.53;;
75620;SDS011;64574;48.506;-2.750;2023-06-22T14:17:41;5.25;;;2.50;;
75620;SDS011;64574;48.506;-2.750;2023-06-22T14:20:06;5.88;;;2.42;;
75620;SDS011;64574;48.506;-2.750;2023-06-22T14:22:33;13.68;;;3.30;;
75620;SDS011;64574;48.506;-2.750;2023-06-22T14:27:26;4.28;;;2.08;;
75620;SDS011;64574;48.506;-2.750;2023-06-22T14:29:52;3.30;;;2.08;;
75620;SDS011;64574;48.506;-2.750;2023-06-22T14:32:18;4.43;;;2.13;;
75620;SDS011;64574;48.506;-2.750;2023-06-22T14:34:44;7.78;;;2.90;;
75620;SDS011;64574;48.506;-2.750;2023-06-22T14:37:09;7.78;;;2.75;;
75620;SDS011;64574;48.506;-2.750;2023-06-22T14:42:03;6.25;;;2.45;;
75620;SDS011;64574;48.506;-2.750;2023-06-22T14:44:29;5.07;;;2.67;;
75620;SDS011;64574;48.506;-2.750;2023-06-22T14:46:55;52.65;;;4.45;;